createdAt,value
2018-04-13T00:00:15.885Z,932.89
2018-04-13T00:01:15.827Z,932.92
2018-04-13T00:02:15.806Z,932.93
2018-04-13T00:03:15.613Z,932.94
2018-04-13T00:04:15.522Z,932.94
2018-04-13T00:05:15.435Z,932.92
2018-04-13T00:06:15.345Z,932.91
2018-04-13T00:07:15.282Z,932.96
2018-04-13T00:08:15.163Z,932.95
2018-04-13T00:09:15.165Z,932.96
2018-04-13T00:10:14.982Z,932.96
2018-04-13T00:11:14.893Z,932.93
2018-04-13T00:12:14.830Z,932.94
2018-04-13T00:13:14.711Z,932.95
2018-04-13T00:14:14.619Z,932.98
2018-04-13T00:15:14.527Z,932.99
2018-04-13T00:16:14.534Z,932.97
2018-04-13T00:17:14.377Z,932.99
2018-04-13T00:18:14.255Z,932.94
2018-04-13T00:19:14.168Z,932.91
2018-04-13T00:20:14.077Z,932.97
2018-04-13T00:21:13.984Z,932.92
2018-04-13T00:22:13.935Z,932.91
2018-04-13T00:23:13.898Z,932.91
2018-04-13T00:24:13.711Z,932.88
2018-04-13T00:25:13.622Z,932.89
2018-04-13T00:26:13.530Z,932.89
2018-04-13T00:27:13.473Z,932.90
2018-04-13T00:28:13.354Z,932.93
2018-04-13T00:29:13.262Z,932.90
2018-04-13T00:30:13.267Z,932.88
2018-04-13T00:31:13.079Z,932.90
2018-04-13T00:32:13.021Z,932.90
2018-04-13T00:33:12.899Z,932.94
2018-04-13T00:34:12.809Z,932.90
2018-04-13T00:35:12.718Z,932.92
2018-04-13T00:36:12.624Z,932.89
2018-04-13T00:37:12.564Z,932.88
2018-04-13T00:38:12.446Z,932.86
2018-04-13T00:39:12.354Z,932.87
2018-04-13T00:40:12.266Z,932.82
2018-04-13T00:41:12.172Z,932.82
2018-04-13T00:42:12.109Z,932.82
2018-04-13T00:43:11.995Z,932.78
2018-04-13T00:44:12.001Z,932.83
2018-04-13T00:45:11.809Z,932.78
2018-04-13T00:46:11.718Z,932.81
2018-04-13T00:47:11.660Z,932.81
2018-04-13T00:48:11.538Z,932.78
2018-04-13T00:49:11.447Z,932.75
2018-04-13T00:50:11.356Z,932.80
2018-04-13T00:51:11.263Z,932.73
2018-04-13T00:52:11.205Z,932.71
2018-04-13T00:53:11.101Z,932.74
2018-04-13T00:54:10.994Z,932.72
2018-04-13T00:55:10.901Z,932.72
2018-04-13T00:56:10.812Z,932.70
2018-04-13T00:57:10.752Z,932.75
2018-04-13T00:58:10.632Z,932.73
2018-04-13T00:59:10.540Z,932.76
2018-04-13T01:00:10.448Z,932.75
2018-04-13T01:01:10.358Z,932.74
2018-04-13T01:02:10.298Z,932.75
2018-04-13T01:03:10.175Z,932.75
2018-04-13T01:04:10.084Z,932.73
2018-04-13T01:05:09.997Z,932.73
2018-04-13T01:06:09.908Z,932.73
2018-04-13T01:07:09.841Z,932.68
2018-04-13T01:08:09.724Z,932.70
2018-04-13T01:09:09.633Z,932.66
2018-04-13T01:10:09.537Z,932.62
2018-04-13T01:11:09.450Z,932.67
2018-04-13T01:12:09.390Z,932.61
2018-04-13T01:13:09.268Z,932.66
2018-04-13T01:14:09.177Z,932.64
2018-04-13T01:15:09.086Z,932.60
2018-04-13T01:16:08.995Z,932.64
2018-04-13T01:17:08.938Z,932.65
2018-04-13T01:18:08.809Z,932.69
2018-04-13T01:19:08.722Z,932.69
2018-04-13T01:20:08.632Z,932.63
2018-04-13T01:21:08.542Z,932.65
2018-04-13T01:22:08.448Z,932.64
2018-04-13T01:23:08.390Z,932.61
2018-04-13T01:24:08.279Z,932.61
2018-04-13T01:25:08.174Z,932.62
2018-04-13T01:26:08.084Z,932.62
2018-04-13T01:27:07.999Z,932.62
2018-04-13T01:28:07.935Z,932.61
2018-04-13T01:29:07.814Z,932.61
2018-04-13T01:30:07.722Z,932.65
2018-04-13T01:31:07.635Z,932.62
2018-04-13T01:32:07.543Z,932.62
2018-04-13T01:33:07.482Z,932.60
2018-04-13T01:34:07.361Z,932.58
2018-04-13T01:35:07.270Z,932.59
2018-04-13T01:36:07.175Z,932.57
2018-04-13T01:37:07.088Z,932.59
2018-04-13T01:38:07.021Z,932.58
2018-04-13T01:39:06.905Z,932.54
2018-04-13T01:40:06.811Z,932.53
2018-04-13T01:41:06.723Z,932.50
2018-04-13T01:42:06.633Z,932.48
2018-04-13T01:43:06.570Z,932.45
2018-04-13T01:44:06.449Z,932.45
2018-04-13T01:45:06.370Z,932.44
2018-04-13T01:46:06.269Z,932.43
2018-04-13T01:47:06.173Z,932.47
2018-04-13T01:48:06.117Z,932.48
2018-04-13T01:49:05.992Z,932.43
2018-04-13T01:50:05.903Z,932.49
2018-04-13T01:51:05.810Z,932.47
2018-04-13T01:52:05.721Z,932.43
2018-04-13T01:53:05.663Z,932.44
2018-04-13T01:54:05.543Z,932.41
2018-04-13T01:55:05.446Z,932.42
2018-04-13T01:56:05.355Z,932.43
2018-04-13T01:57:05.265Z,932.33
2018-04-13T01:58:05.204Z,932.35
2018-04-13T01:59:05.082Z,932.35
2018-04-13T02:00:05.088Z,932.35
2018-04-13T02:01:04.905Z,932.32
2018-04-13T02:02:04.809Z,932.26
2018-04-13T02:03:04.744Z,932.25
2018-04-13T02:04:04.626Z,932.24
2018-04-13T02:05:04.538Z,932.24
2018-04-13T02:06:04.442Z,932.23
2018-04-13T02:07:04.355Z,932.21
2018-04-13T02:08:04.291Z,932.18
2018-04-13T02:09:04.172Z,932.13
2018-04-13T02:10:04.079Z,932.14
2018-04-13T02:11:03.987Z,932.17
2018-04-13T02:12:03.896Z,932.22
2018-04-13T02:13:03.839Z,932.22
2018-04-13T02:14:03.809Z,932.32
2018-04-13T02:15:03.626Z,932.34
2018-04-13T02:16:03.532Z,932.40
2018-04-13T02:17:03.439Z,932.48
2018-04-13T02:18:03.378Z,932.54
2018-04-13T02:19:03.257Z,932.61
2018-04-13T02:20:03.165Z,932.72
2018-04-13T02:21:03.166Z,932.68
2018-04-13T02:22:02.981Z,932.70
2018-04-13T02:23:02.924Z,932.66
2018-04-13T02:24:02.799Z,932.71
2018-04-13T02:25:02.708Z,932.62
2018-04-13T02:26:02.627Z,932.56
2018-04-13T02:27:02.524Z,932.56
2018-04-13T02:28:02.532Z,932.54
2018-04-13T02:29:02.376Z,932.56
2018-04-13T02:30:02.249Z,932.52
2018-04-13T02:31:02.160Z,932.54
2018-04-13T02:32:02.066Z,932.63
2018-04-13T02:33:02.021Z,932.63
2018-04-13T02:34:01.888Z,932.59
2018-04-13T02:35:01.902Z,932.61
2018-04-13T02:36:01.712Z,932.57
2018-04-13T02:37:01.613Z,932.67
2018-04-13T02:38:01.525Z,932.71
2018-04-13T02:39:01.458Z,932.72
2018-04-13T02:40:01.344Z,932.68
2018-04-13T02:41:01.251Z,932.72
2018-04-13T02:42:01.245Z,932.69
2018-04-13T02:43:01.067Z,932.69
2018-04-13T02:44:01.007Z,932.71
2018-04-13T02:45:00.881Z,932.71
2018-04-13T02:46:00.788Z,932.71
2018-04-13T02:47:00.698Z,932.77
2018-04-13T02:48:00.610Z,932.79
2018-04-13T02:49:00.639Z,932.91
2018-04-13T02:50:00.425Z,932.90
2018-04-13T02:51:00.330Z,932.90
2018-04-13T02:52:00.242Z,933.03
2018-04-13T02:53:00.149Z,932.94
2018-04-13T02:54:00.083Z,932.94
2018-04-13T02:54:59.965Z,932.95
2018-04-13T02:55:59.967Z,932.95
2018-04-13T02:56:59.781Z,932.91
2018-04-13T02:57:59.691Z,932.97
2018-04-13T02:58:59.630Z,932.93
2018-04-13T02:59:59.506Z,932.90
2018-04-13T03:00:59.416Z,932.85
2018-04-13T03:01:59.328Z,932.85
2018-04-13T03:02:59.327Z,932.87
2018-04-13T03:03:59.173Z,932.82
2018-04-13T03:04:59.052Z,932.85
2018-04-13T03:05:58.957Z,932.85
2018-04-13T03:06:58.867Z,932.91
2018-04-13T03:07:58.774Z,932.81
2018-04-13T03:08:58.718Z,932.83
2018-04-13T03:09:58.692Z,932.81
2018-04-13T03:10:58.503Z,932.79
2018-04-13T03:11:58.412Z,932.77
2018-04-13T03:12:58.320Z,932.75
2018-04-13T03:13:58.262Z,932.78
2018-04-13T03:14:58.136Z,932.74
2018-04-13T03:15:58.044Z,932.82
2018-04-13T03:16:58.048Z,932.80
2018-04-13T03:17:57.866Z,932.79
2018-04-13T03:18:57.807Z,932.75
2018-04-13T03:19:57.680Z,932.76
2018-04-13T03:20:57.592Z,932.75
2018-04-13T03:21:57.498Z,932.73
2018-04-13T03:22:57.409Z,932.71
2018-04-13T03:23:57.350Z,932.71
2018-04-13T03:24:57.226Z,932.71
2018-04-13T03:25:57.132Z,932.68
2018-04-13T03:26:57.043Z,932.67
2018-04-13T03:27:56.965Z,932.73
2018-04-13T03:28:56.891Z,932.70
2018-04-13T03:29:56.767Z,932.79
2018-04-13T03:30:56.775Z,932.78
2018-04-13T03:31:56.587Z,932.76
2018-04-13T03:32:56.495Z,932.81
2018-04-13T03:33:56.434Z,932.76
2018-04-13T03:34:56.315Z,932.76
2018-04-13T03:35:56.221Z,932.71
2018-04-13T03:36:56.129Z,932.76
2018-04-13T03:37:56.837Z,932.72
2018-04-13T03:38:55.978Z,932.71
2018-04-13T03:39:55.857Z,932.74
2018-04-13T03:40:55.769Z,932.70
2018-04-13T03:41:55.674Z,932.75
2018-04-13T03:42:55.583Z,932.71
2018-04-13T03:43:55.495Z,932.74
2018-04-13T03:44:55.441Z,932.75
2018-04-13T03:45:55.312Z,932.75
2018-04-13T03:46:55.221Z,932.74
2018-04-13T03:47:55.128Z,932.77
2018-04-13T03:48:55.040Z,932.78
2018-04-13T03:49:54.983Z,932.82
2018-04-13T03:50:54.855Z,932.87
2018-04-13T03:51:54.764Z,932.86
2018-04-13T03:52:54.675Z,932.80
2018-04-13T03:53:54.586Z,932.85
2018-04-13T03:54:54.525Z,932.82
2018-04-13T03:55:54.399Z,932.81
2018-04-13T03:56:54.308Z,932.82
2018-04-13T03:57:54.216Z,932.83
2018-04-13T03:58:54.127Z,932.81
2018-04-13T03:59:54.068Z,932.82
2018-04-13T04:00:53.942Z,932.82
2018-04-13T04:01:53.854Z,932.79
2018-04-13T04:02:53.763Z,932.81
2018-04-13T04:03:53.672Z,932.86
2018-04-13T04:04:53.611Z,932.84
2018-04-13T04:05:53.491Z,932.85
2018-04-13T04:06:53.399Z,932.89
2018-04-13T04:07:53.307Z,932.89
2018-04-13T04:08:53.217Z,932.87
2018-04-13T04:09:53.158Z,932.84
2018-04-13T04:10:53.031Z,932.86
2018-04-13T04:11:52.943Z,932.85
2018-04-13T04:12:52.851Z,932.91
2018-04-13T04:13:52.758Z,932.93
2018-04-13T04:14:52.701Z,932.93
2018-04-13T04:15:52.577Z,932.93
2018-04-13T04:16:52.487Z,932.93
2018-04-13T04:17:52.400Z,932.91
2018-04-13T04:18:52.304Z,932.88
2018-04-13T04:19:52.246Z,932.86
2018-04-13T04:20:52.123Z,932.84
2018-04-13T04:21:52.030Z,932.90
2018-04-13T04:22:51.943Z,932.89
2018-04-13T04:23:51.850Z,932.92
2018-04-13T04:24:51.789Z,932.91
2018-04-13T04:25:51.670Z,932.95
2018-04-13T04:26:51.582Z,932.93
2018-04-13T04:27:51.487Z,932.94
2018-04-13T04:28:51.403Z,932.94
2018-04-13T04:29:51.334Z,933.03
2018-04-13T04:30:51.214Z,932.95
2018-04-13T04:31:51.127Z,933.01
2018-04-13T04:32:51.030Z,932.96
2018-04-13T04:33:50.941Z,932.98
2018-04-13T04:34:50.853Z,932.96
2018-04-13T04:35:50.788Z,933.00
2018-04-13T04:36:50.671Z,933.03
2018-04-13T04:37:50.576Z,933.01
2018-04-13T04:38:50.487Z,933.03
2018-04-13T04:39:50.507Z,933.04
2018-04-13T04:40:50.337Z,933.02
2018-04-13T04:41:50.215Z,933.02
2018-04-13T04:42:50.124Z,933.03
2018-04-13T04:43:50.034Z,933.07
2018-04-13T04:44:49.946Z,933.07
2018-04-13T04:45:49.878Z,933.10
2018-04-13T04:46:49.762Z,933.08
2018-04-13T04:47:49.668Z,933.08
2018-04-13T04:48:49.581Z,933.09
2018-04-13T04:49:49.490Z,933.08
2018-04-13T04:50:49.430Z,933.14
2018-04-13T04:51:49.853Z,933.13
2018-04-13T04:52:49.220Z,933.17
2018-04-13T04:53:49.213Z,933.22
2018-04-13T04:54:49.036Z,933.16
2018-04-13T04:55:48.978Z,933.14
2018-04-13T04:56:48.857Z,933.11
2018-04-13T04:57:48.762Z,933.10
2018-04-13T04:58:48.676Z,933.03
2018-04-13T04:59:48.579Z,933.11
2018-04-13T05:00:48.615Z,933.03
2018-04-13T05:01:48.408Z,932.95
2018-04-13T05:02:48.310Z,933.03
2018-04-13T05:03:48.220Z,933.00
2018-04-13T05:04:48.128Z,933.03
2018-04-13T05:05:48.065Z,932.98
2018-04-13T05:06:47.947Z,933.01
2018-04-13T05:07:47.948Z,933.00
2018-04-13T05:08:47.765Z,932.97
2018-04-13T05:09:47.671Z,932.99
2018-04-13T05:10:47.613Z,933.06
2018-04-13T05:11:47.502Z,932.99
2018-04-13T05:12:47.404Z,933.18
2018-04-13T05:13:47.311Z,933.10
2018-04-13T05:14:47.219Z,933.00
2018-04-13T05:15:47.160Z,933.00
2018-04-13T05:16:47.038Z,933.03
2018-04-13T05:17:46.946Z,933.00
2018-04-13T05:18:46.857Z,933.06
2018-04-13T05:19:46.767Z,933.11
2018-04-13T05:20:46.711Z,933.17
2018-04-13T05:21:46.582Z,933.25
2018-04-13T05:22:46.493Z,933.23
2018-04-13T05:23:46.407Z,933.19
2018-04-13T05:24:46.311Z,933.22
2018-04-13T05:25:46.253Z,933.26
2018-04-13T05:26:46.137Z,933.28
2018-04-13T05:27:46.040Z,933.34
2018-04-13T05:28:45.951Z,933.31
2018-04-13T05:29:45.858Z,933.32
2018-04-13T05:30:45.803Z,933.32
2018-04-13T05:31:45.679Z,933.35
2018-04-13T05:32:46.365Z,933.30
2018-04-13T05:33:45.505Z,933.30
2018-04-13T05:34:45.408Z,933.26
2018-04-13T05:35:45.347Z,933.32
2018-04-13T05:36:45.226Z,933.27
2018-04-13T05:37:45.135Z,933.26
2018-04-13T05:38:45.049Z,933.32
2018-04-13T05:39:44.956Z,933.28
2018-04-13T05:40:44.898Z,933.29
2018-04-13T05:41:44.777Z,933.25
2018-04-13T05:42:44.685Z,933.30
2018-04-13T05:43:44.595Z,933.33
2018-04-13T05:44:44.504Z,933.39
2018-04-13T05:45:44.416Z,933.31
2018-04-13T05:46:44.354Z,933.39
2018-04-13T05:47:44.248Z,933.30
2018-04-13T05:48:44.145Z,933.41
2018-04-13T05:49:44.048Z,933.43
2018-04-13T05:50:44.345Z,933.41
2018-04-13T05:51:43.901Z,933.49
2018-04-13T05:52:43.781Z,933.43
2018-04-13T05:53:43.689Z,933.46
2018-04-13T05:54:43.601Z,933.38
2018-04-13T05:55:43.513Z,933.50
2018-04-13T05:56:43.453Z,933.40
2018-04-13T05:57:43.425Z,933.43
2018-04-13T05:58:43.241Z,933.35
2018-04-13T05:59:43.148Z,933.39
2018-04-13T06:00:43.062Z,933.42
2018-04-13T06:01:43.005Z,933.41
2018-04-13T06:02:42.877Z,933.46
2018-04-13T06:03:42.789Z,933.41
2018-04-13T06:04:42.809Z,933.40
2018-04-13T06:05:42.606Z,933.43
2018-04-13T06:06:42.550Z,933.49
2018-04-13T06:07:42.422Z,933.45
2018-04-13T06:08:42.342Z,933.45
2018-04-13T06:09:42.247Z,933.46
2018-04-13T06:10:42.156Z,933.39
2018-04-13T06:11:42.094Z,933.41
2018-04-13T06:12:41.975Z,933.49
2018-04-13T06:13:41.882Z,933.51
2018-04-13T06:14:41.804Z,933.56
2018-04-13T06:15:41.704Z,933.51
2018-04-13T06:16:41.642Z,933.46
2018-04-13T06:17:41.520Z,933.53
2018-04-13T06:18:41.522Z,933.52
2018-04-13T06:19:41.344Z,933.55
2018-04-13T06:20:41.250Z,933.52
2018-04-13T06:21:41.189Z,933.53
2018-04-13T06:22:41.068Z,933.65
2018-04-13T06:23:40.987Z,933.56
2018-04-13T06:24:40.890Z,933.50
2018-04-13T06:25:40.800Z,933.55
2018-04-13T06:26:40.735Z,933.49
2018-04-13T06:27:40.619Z,933.49
2018-04-13T06:28:40.532Z,933.50
2018-04-13T06:29:40.433Z,933.55
2018-04-13T06:30:40.342Z,933.55
2018-04-13T06:31:40.285Z,933.51
2018-04-13T06:32:40.164Z,933.47
2018-04-13T06:33:40.073Z,933.57
2018-04-13T06:34:39.986Z,933.49
2018-04-13T06:35:39.891Z,933.55
2018-04-13T06:36:39.834Z,933.49
2018-04-13T06:37:39.713Z,933.48
2018-04-13T06:38:39.620Z,933.45
2018-04-13T06:39:39.532Z,933.52
2018-04-13T06:40:39.441Z,933.54
2018-04-13T06:41:39.379Z,933.61
2018-04-13T06:42:39.259Z,933.64
2018-04-13T06:43:39.217Z,933.48
2018-04-13T06:44:39.080Z,933.55
2018-04-13T06:45:38.987Z,933.52
2018-04-13T06:46:38.929Z,933.57
2018-04-13T06:47:38.809Z,933.57
2018-04-13T06:48:38.722Z,933.69
2018-04-13T06:49:38.625Z,933.66
2018-04-13T06:50:38.534Z,933.60
2018-04-13T06:51:38.472Z,933.63
2018-04-13T06:52:38.355Z,933.60
2018-04-13T06:53:38.261Z,933.70
2018-04-13T06:54:38.174Z,933.75
2018-04-13T06:55:38.082Z,933.77
2018-04-13T06:56:38.052Z,933.74
2018-04-13T06:57:37.901Z,933.78
2018-04-13T06:58:37.810Z,933.71
2018-04-13T06:59:37.719Z,933.79
2018-04-13T07:00:37.634Z,933.70
2018-04-13T07:01:37.539Z,933.69
2018-04-13T07:02:37.475Z,933.79
2018-04-13T07:03:37.355Z,933.75
2018-04-13T07:04:37.267Z,933.70
2018-04-13T07:05:37.177Z,933.70
2018-04-13T07:06:37.086Z,933.67
2018-04-13T07:07:37.040Z,933.75
2018-04-13T07:08:36.904Z,933.71
2018-04-13T07:09:36.809Z,933.74
2018-04-13T07:10:36.719Z,933.69
2018-04-13T07:11:36.634Z,933.76
2018-04-13T07:12:36.573Z,933.83
2018-04-13T07:13:36.451Z,933.74
2018-04-13T07:14:36.361Z,933.73
2018-04-13T07:15:36.269Z,933.77
2018-04-13T07:16:36.178Z,933.86
2018-04-13T07:17:36.116Z,933.97
2018-04-13T07:18:35.995Z,933.87
2018-04-13T07:19:35.903Z,933.97
2018-04-13T07:20:35.815Z,933.88
2018-04-13T07:21:35.722Z,933.88
2018-04-13T07:22:35.661Z,933.92
2018-04-13T07:23:35.541Z,933.98
2018-04-13T07:24:35.449Z,933.89
2018-04-13T07:25:35.357Z,933.96
2018-04-13T07:26:35.269Z,933.92
2018-04-13T07:27:35.203Z,933.91
2018-04-13T07:28:35.087Z,933.94
2018-04-13T07:29:34.995Z,933.93
2018-04-13T07:30:34.905Z,933.96
2018-04-13T07:31:34.965Z,933.95
2018-04-13T07:32:34.758Z,933.95
2018-04-13T07:33:34.633Z,934.04
2018-04-13T07:34:34.607Z,934.10
2018-04-13T07:35:34.453Z,934.21
2018-04-13T07:36:34.361Z,934.18
2018-04-13T07:37:34.297Z,934.10
2018-04-13T07:38:34.179Z,934.15
2018-04-13T07:39:34.090Z,934.11
2018-04-13T07:40:33.998Z,934.12
2018-04-13T07:41:34.001Z,934.13
2018-04-13T07:42:33.847Z,934.11
2018-04-13T07:43:33.974Z,934.18
2018-04-13T07:44:33.640Z,934.20
2018-04-13T07:45:33.555Z,934.24
2018-04-13T07:46:33.455Z,934.29
2018-04-13T07:47:33.533Z,934.26
2018-04-13T07:48:33.367Z,934.20
2018-04-13T07:49:33.184Z,934.24
2018-04-13T07:50:33.095Z,934.26
2018-04-13T07:51:33.005Z,934.25
2018-04-13T07:52:32.948Z,934.28
2018-04-13T07:53:32.822Z,934.28
2018-04-13T07:54:32.730Z,934.29
2018-04-13T07:55:32.741Z,934.34
2018-04-13T07:56:32.553Z,934.25
2018-04-13T07:57:32.492Z,934.25
2018-04-13T07:58:32.831Z,934.29
2018-04-13T07:59:32.300Z,934.28
2018-04-13T08:00:32.191Z,934.23
2018-04-13T08:01:32.103Z,934.28
2018-04-13T08:02:32.135Z,934.32
2018-04-13T08:03:31.923Z,934.30
2018-04-13T08:04:31.829Z,934.35
2018-04-13T08:05:31.737Z,934.38
2018-04-13T08:06:31.809Z,934.29
2018-04-13T08:07:31.594Z,934.34
2018-04-13T08:08:31.483Z,934.34
2018-04-13T08:09:31.497Z,934.25
2018-04-13T08:10:31.290Z,934.27
2018-04-13T08:11:31.216Z,934.26
2018-04-13T08:12:31.136Z,934.29
2018-04-13T08:13:31.018Z,934.25
2018-04-13T08:14:30.932Z,934.23
2018-04-13T08:15:30.836Z,934.20
2018-04-13T08:16:30.844Z,934.30
2018-04-13T08:17:30.659Z,934.27
2018-04-13T08:18:30.598Z,934.34
2018-04-13T08:19:30.481Z,934.37
2018-04-13T08:20:30.391Z,934.36
2018-04-13T08:21:30.298Z,934.36
2018-04-13T08:22:30.209Z,934.38
2018-04-13T08:23:30.240Z,934.40
2018-04-13T08:24:30.026Z,934.43
2018-04-13T08:25:29.937Z,934.39
2018-04-13T08:26:29.844Z,934.43
2018-04-13T08:27:29.755Z,934.47
2018-04-13T08:28:29.694Z,934.46
2018-04-13T08:29:29.571Z,934.48
2018-04-13T08:30:29.589Z,934.48
2018-04-13T08:31:29.393Z,934.47
2018-04-13T08:32:29.304Z,934.51
2018-04-13T08:33:29.242Z,934.53
2018-04-13T08:34:29.122Z,934.52
2018-04-13T08:35:29.071Z,934.53
2018-04-13T08:36:28.941Z,934.60
2018-04-13T08:37:28.944Z,934.57
2018-04-13T08:38:28.803Z,934.62
2018-04-13T08:39:28.668Z,934.64
2018-04-13T08:40:28.597Z,934.71
2018-04-13T08:41:28.491Z,934.74
2018-04-13T08:42:28.398Z,934.71
2018-04-13T08:43:28.382Z,934.71
2018-04-13T08:44:28.305Z,934.65
2018-04-13T08:45:28.128Z,934.66
2018-04-13T08:46:28.040Z,934.67
2018-04-13T08:47:28.044Z,934.64
2018-04-13T08:48:27.886Z,934.66
2018-04-13T08:49:27.817Z,934.68
2018-04-13T08:50:27.677Z,934.66
2018-04-13T08:51:27.691Z,934.64
2018-04-13T08:52:27.518Z,934.63
2018-04-13T08:53:27.432Z,934.65
2018-04-13T08:54:27.308Z,934.64
2018-04-13T08:55:27.221Z,934.64
2018-04-13T08:56:27.131Z,934.68
2018-04-13T08:57:27.038Z,934.67
2018-04-13T08:58:26.981Z,934.67
2018-04-13T08:59:26.857Z,934.70
2018-04-13T09:00:26.769Z,934.65
2018-04-13T09:01:26.677Z,934.67
2018-04-13T09:02:26.586Z,934.68
2018-04-13T09:03:26.528Z,934.73
2018-04-13T09:04:26.405Z,934.73
2018-04-13T09:05:26.316Z,934.77
2018-04-13T09:06:26.256Z,934.78
2018-04-13T09:07:26.136Z,934.79
2018-04-13T09:08:26.074Z,934.81
2018-04-13T09:09:25.956Z,934.81
2018-04-13T09:10:25.864Z,934.80
2018-04-13T09:11:25.774Z,934.84
2018-04-13T09:12:25.684Z,934.87
2018-04-13T09:13:25.625Z,934.88
2018-04-13T09:14:25.505Z,934.87
2018-04-13T09:15:25.411Z,934.89
2018-04-13T09:16:25.324Z,935.01
2018-04-13T09:17:25.232Z,934.99
2018-04-13T09:18:25.171Z,935.08
2018-04-13T09:19:25.070Z,935.16
2018-04-13T09:20:24.963Z,935.26
2018-04-13T09:21:24.872Z,935.20
2018-04-13T09:22:24.779Z,935.21
2018-04-13T09:23:24.723Z,935.25
2018-04-13T09:24:24.602Z,935.32
2018-04-13T09:25:24.513Z,935.32
2018-04-13T09:26:24.426Z,935.25
2018-04-13T09:27:24.334Z,935.24
2018-04-13T09:28:24.247Z,935.21
2018-04-13T09:29:24.185Z,935.21
2018-04-13T09:30:24.065Z,935.29
2018-04-13T09:31:23.978Z,935.24
2018-04-13T09:32:23.896Z,935.23
2018-04-13T09:33:23.801Z,935.28
2018-04-13T09:34:23.740Z,935.28
2018-04-13T09:35:23.625Z,935.20
2018-04-13T09:36:23.533Z,935.16
2018-04-13T09:37:23.483Z,935.20
2018-04-13T09:38:23.359Z,935.30
2018-04-13T09:39:23.298Z,935.29
2018-04-13T09:40:23.178Z,935.27
2018-04-13T09:41:23.089Z,935.19
2018-04-13T09:42:23.008Z,935.13
2018-04-13T09:43:22.917Z,935.17
2018-04-13T09:44:22.905Z,935.18
2018-04-13T09:45:22.735Z,935.19
2018-04-13T09:46:22.650Z,935.33
2018-04-13T09:47:22.562Z,935.28
2018-04-13T09:48:22.471Z,935.18
2018-04-13T09:49:22.413Z,935.17
2018-04-13T09:50:22.295Z,935.28
2018-04-13T09:51:22.209Z,935.25
2018-04-13T09:52:22.117Z,935.26
2018-04-13T09:53:22.029Z,935.19
2018-04-13T09:54:21.975Z,935.22
2018-04-13T09:55:21.856Z,935.25
2018-04-13T09:56:21.767Z,935.24
2018-04-13T09:57:21.680Z,935.31
2018-04-13T09:58:21.588Z,935.32
2018-04-13T09:59:21.535Z,935.32
2018-04-13T10:00:21.417Z,935.30
2018-04-13T10:01:21.330Z,935.34
2018-04-13T10:02:21.239Z,935.37
2018-04-13T10:03:21.151Z,935.33
2018-04-13T10:04:21.094Z,935.42
2018-04-13T10:05:20.986Z,935.39
2018-04-13T10:06:20.883Z,935.36
2018-04-13T10:07:20.797Z,935.35
2018-04-13T10:08:20.706Z,935.41
2018-04-13T10:09:20.649Z,935.39
2018-04-13T10:10:20.528Z,935.36
2018-04-13T10:11:20.441Z,935.41
2018-04-13T10:12:20.353Z,935.37
2018-04-13T10:13:20.264Z,935.37
2018-04-13T10:14:20.293Z,935.37
2018-04-13T10:15:20.088Z,935.36
2018-04-13T10:16:19.998Z,935.35
2018-04-13T10:17:19.910Z,935.40
2018-04-13T10:18:19.819Z,935.38
2018-04-13T10:19:19.770Z,935.40
2018-04-13T10:20:19.642Z,935.37
2018-04-13T10:21:19.652Z,935.41
2018-04-13T10:22:19.464Z,935.37
2018-04-13T10:23:19.377Z,935.46
2018-04-13T10:24:19.315Z,935.41
2018-04-13T10:25:19.198Z,935.42
2018-04-13T10:26:19.107Z,935.44
2018-04-13T10:27:19.021Z,935.50
2018-04-13T10:28:19.024Z,935.55
2018-04-13T10:29:18.872Z,935.52
2018-04-13T10:30:18.753Z,935.52
2018-04-13T10:31:18.664Z,935.52
2018-04-13T10:32:18.576Z,935.54
2018-04-13T10:33:18.483Z,935.54
2018-04-13T10:34:18.428Z,935.57
2018-04-13T10:35:18.400Z,935.59
2018-04-13T10:36:18.935Z,935.60
2018-04-13T10:37:18.127Z,935.64
2018-04-13T10:38:18.037Z,935.64
2018-04-13T10:39:17.951Z,935.66
2018-04-13T10:40:17.889Z,935.64
2018-04-13T10:41:17.765Z,935.71
2018-04-13T10:42:17.771Z,935.74
2018-04-13T10:43:17.590Z,935.73
2018-04-13T10:44:17.504Z,935.77
2018-04-13T10:45:17.442Z,935.80
2018-04-13T10:46:17.321Z,935.86
2018-04-13T10:47:17.229Z,935.86
2018-04-13T10:48:17.142Z,935.80
2018-04-13T10:49:17.146Z,935.79
2018-04-13T10:50:16.991Z,935.76
2018-04-13T10:51:16.871Z,935.80
2018-04-13T10:52:16.780Z,935.82
2018-04-13T10:53:16.695Z,935.85
2018-04-13T10:54:16.600Z,935.86
2018-04-13T10:55:16.540Z,935.82
2018-04-13T10:56:16.522Z,935.83
2018-04-13T10:57:16.329Z,935.78
2018-04-13T10:58:16.243Z,935.82
2018-04-13T10:59:16.150Z,935.85
2018-04-13T11:00:16.090Z,935.81
2018-04-13T11:01:15.976Z,935.83
2018-04-13T11:02:15.884Z,935.81
2018-04-13T11:03:15.808Z,935.80
2018-04-13T11:04:15.701Z,935.86
2018-04-13T11:05:15.648Z,935.82
2018-04-13T11:06:15.524Z,935.81
2018-04-13T11:07:15.435Z,935.86
2018-04-13T11:08:15.345Z,935.96
2018-04-13T11:09:15.256Z,936.05
2018-04-13T11:10:15.243Z,936.08
2018-04-13T11:11:15.074Z,936.16
2018-04-13T11:12:14.987Z,936.25
2018-04-13T11:13:14.908Z,936.29
2018-04-13T11:14:14.809Z,936.55
2018-04-13T11:15:14.751Z,936.89
2018-04-13T11:16:14.633Z,936.52
2018-04-13T11:17:14.544Z,936.71
2018-04-13T11:18:14.454Z,936.64
2018-04-13T11:19:14.370Z,937.39
2018-04-13T11:20:14.324Z,936.42
2018-04-13T11:21:14.195Z,936.37
2018-04-13T11:22:14.105Z,936.42
2018-04-13T11:23:14.021Z,936.96
2018-04-13T11:24:13.931Z,936.52
2018-04-13T11:25:13.879Z,936.64
2018-04-13T11:26:13.760Z,937.14
2018-04-13T11:27:13.672Z,937.31
2018-04-13T11:28:13.587Z,937.04
2018-04-13T11:29:13.500Z,936.97
2018-04-13T11:30:13.444Z,936.37
2018-04-13T11:31:13.328Z,936.41
2018-04-13T11:32:13.242Z,936.65
2018-04-13T11:33:13.156Z,936.42
2018-04-13T11:34:13.074Z,936.71
2018-04-13T11:35:13.022Z,936.84
2018-04-13T11:36:12.903Z,936.74
2018-04-13T11:37:12.821Z,936.75
2018-04-13T11:38:12.735Z,936.69
2018-04-13T11:39:12.651Z,936.68
2018-04-13T11:40:12.600Z,936.63
2018-04-13T11:41:12.483Z,936.33
2018-04-13T11:42:12.396Z,936.39
2018-04-13T11:43:12.317Z,936.43
2018-04-13T11:44:12.234Z,936.72
2018-04-13T11:45:12.175Z,936.99
2018-04-13T11:46:12.063Z,936.48
2018-04-13T11:47:11.980Z,936.80
2018-04-13T11:48:11.897Z,936.76
2018-04-13T11:49:11.815Z,936.73
2018-04-13T11:50:11.758Z,936.67
2018-04-13T11:51:11.642Z,936.65
2018-04-13T11:52:11.563Z,936.64
2018-04-13T11:53:11.476Z,936.64
2018-04-13T11:54:11.394Z,936.65
2018-04-13T11:55:11.314Z,936.65
2018-04-13T11:56:11.257Z,936.70
2018-04-13T11:57:11.145Z,936.66
2018-04-13T11:58:11.060Z,936.72
2018-04-13T11:59:11.021Z,936.65
2018-04-13T12:00:10.900Z,936.61
2018-04-13T12:01:10.845Z,936.65
2018-04-13T12:02:10.776Z,936.62
2018-04-13T12:03:10.645Z,936.69
2018-04-13T12:04:10.567Z,936.57
2018-04-13T12:05:10.484Z,936.61
2018-04-13T12:06:10.430Z,936.65
2018-04-13T12:07:10.319Z,936.53
2018-04-13T12:08:10.239Z,936.45
2018-04-13T12:09:10.156Z,936.49
2018-04-13T12:10:10.077Z,936.69
2018-04-13T12:11:10.022Z,936.30
2018-04-13T12:12:09.912Z,936.39
2018-04-13T12:13:09.922Z,936.47
2018-04-13T12:14:09.748Z,936.74
2018-04-13T12:15:09.678Z,936.80
2018-04-13T12:16:09.617Z,936.82
2018-04-13T12:17:09.503Z,936.79
2018-04-13T12:18:09.429Z,936.75
2018-04-13T12:19:09.342Z,936.34
2018-04-13T12:20:09.260Z,936.73
2018-04-13T12:21:09.207Z,936.66
2018-04-13T12:22:09.109Z,936.88
2018-04-13T12:23:09.016Z,936.91
2018-04-13T12:24:08.938Z,937.00
2018-04-13T12:25:08.855Z,936.50
2018-04-13T12:26:08.803Z,936.49
2018-04-13T12:27:08.799Z,937.01